createdAt,value
2018-07-23T00:00:12.724Z,99.90
2018-07-23T00:02:41.066Z,99.90
2018-07-23T00:05:09.376Z,99.90
2018-07-23T00:07:37.688Z,99.90
2018-07-23T00:10:06.140Z,99.90
2018-07-23T00:12:34.419Z,99.90
2018-07-23T00:15:02.677Z,99.90
2018-07-23T00:17:30.941Z,99.90
2018-07-23T00:19:59.239Z,99.90
2018-07-23T00:22:27.729Z,99.90
2018-07-23T00:24:55.997Z,99.90
2018-07-23T00:27:24.277Z,99.90
2018-07-23T00:29:52.555Z,99.90
2018-07-23T00:32:20.827Z,99.90
2018-07-23T00:34:49.089Z,99.90
2018-07-23T00:37:17.475Z,99.90
2018-07-23T00:39:45.752Z,99.90
2018-07-23T00:42:14.057Z,99.90
2018-07-23T00:44:42.331Z,99.90
2018-07-23T00:47:10.851Z,99.90
2018-07-23T00:49:39.125Z,99.90
2018-07-23T00:52:07.421Z,99.90
2018-07-23T00:54:35.732Z,99.90
2018-07-23T00:57:04.148Z,99.90
2018-07-23T00:59:32.635Z,99.90
2018-07-23T01:02:00.993Z,99.90
2018-07-23T01:04:29.314Z,99.90
2018-07-23T01:06:57.599Z,99.90
2018-07-23T01:11:53.936Z,99.90
2018-07-23T01:14:22.335Z,99.90
2018-07-23T01:19:18.680Z,99.90
2018-07-23T01:21:46.955Z,99.90
2018-07-23T01:24:15.248Z,99.90
2018-07-23T01:26:43.708Z,99.90
2018-07-23T01:29:12.002Z,99.90
2018-07-23T01:31:40.270Z,99.90
2018-07-23T01:34:08.519Z,99.90
2018-07-23T01:36:36.804Z,99.90
2018-07-23T01:41:34.921Z,99.90
2018-07-23T01:44:03.200Z,99.90
2018-07-23T01:46:31.450Z,99.90
2018-07-23T01:48:59.778Z,99.90
2018-07-23T01:51:28.069Z,99.90
2018-07-23T01:53:56.332Z,99.90
2018-07-23T01:56:24.781Z,99.90
2018-07-23T01:58:53.056Z,99.90
2018-07-23T02:01:21.369Z,99.90
2018-07-23T02:03:49.654Z,99.90
2018-07-23T02:06:18.162Z,99.90
2018-07-23T02:08:46.551Z,99.90
2018-07-23T02:11:15.007Z,99.90
2018-07-23T02:13:43.514Z,99.90
2018-07-23T02:16:11.842Z,99.90
2018-07-23T02:18:40.125Z,99.90
2018-07-23T02:21:08.410Z,99.90
2018-07-23T02:23:36.906Z,99.90
2018-07-23T02:26:05.405Z,99.90
2018-07-23T02:28:33.677Z,99.90
2018-07-23T02:31:02.023Z,99.90
2018-07-23T02:33:30.295Z,99.90
2018-07-23T02:35:58.589Z,99.90
2018-07-23T02:38:27.002Z,99.90
2018-07-23T02:40:55.330Z,99.90
2018-07-23T02:43:23.591Z,99.90
2018-07-23T02:45:51.885Z,99.90
2018-07-23T02:48:20.217Z,99.90
2018-07-23T02:50:48.515Z,99.90
2018-07-23T02:53:16.821Z,99.90
2018-07-23T02:55:45.122Z,99.90
2018-07-23T02:58:13.625Z,99.90
2018-07-23T03:00:42.065Z,99.90
2018-07-23T03:03:10.825Z,99.90
2018-07-23T03:05:39.127Z,99.90
2018-07-23T03:08:07.435Z,99.90
2018-07-23T03:10:35.718Z,99.90
2018-07-23T03:13:04.020Z,99.90
2018-07-23T03:15:32.348Z,99.90
2018-07-23T03:18:00.601Z,99.90
2018-07-23T03:20:28.918Z,99.90
2018-07-23T03:22:57.228Z,99.90
2018-07-23T03:25:25.579Z,99.90
2018-07-23T03:27:53.817Z,99.90
2018-07-23T03:30:22.133Z,99.90
2018-07-23T03:32:50.480Z,99.90
2018-07-23T03:35:18.846Z,99.90
2018-07-23T03:37:47.117Z,99.90
2018-07-23T03:40:15.398Z,99.90
2018-07-23T03:42:43.648Z,99.90
2018-07-23T03:45:12.100Z,99.90
2018-07-23T03:47:40.374Z,99.90
2018-07-23T03:50:08.640Z,99.90
2018-07-23T03:52:36.954Z,99.90
2018-07-23T03:55:05.250Z,99.90
2018-07-23T03:57:33.566Z,99.90
2018-07-23T04:00:01.921Z,99.90
2018-07-23T04:04:58.274Z,99.90
2018-07-23T04:09:54.604Z,99.90
2018-07-23T04:12:22.919Z,99.90
2018-07-23T04:14:51.181Z,99.90
2018-07-23T04:17:19.464Z,99.90
2018-07-23T04:19:47.767Z,99.90
2018-07-23T04:22:16.039Z,99.90
2018-07-23T04:24:44.323Z,99.90
2018-07-23T04:27:12.641Z,99.90
2018-07-23T04:29:41.023Z,99.90
2018-07-23T04:32:09.573Z,99.90
2018-07-23T04:34:38.015Z,99.90
2018-07-23T04:37:06.305Z,99.90
2018-07-23T04:39:34.569Z,99.90
2018-07-23T04:42:02.857Z,99.90
2018-07-23T04:44:31.215Z,99.90
2018-07-23T04:46:59.516Z,99.90
2018-07-23T04:49:27.765Z,99.90
2018-07-23T04:51:56.053Z,99.90
2018-07-23T04:54:24.342Z,99.90
2018-07-23T04:56:52.719Z,99.90
2018-07-23T04:59:20.920Z,99.90
2018-07-23T05:01:49.189Z,99.90
2018-07-23T05:04:17.621Z,99.90
2018-07-23T05:06:45.896Z,99.90
2018-07-23T05:09:14.181Z,99.90
2018-07-23T05:11:42.487Z,99.90
2018-07-23T05:14:11.378Z,99.90
2018-07-23T05:16:39.897Z,99.90
2018-07-23T05:19:08.314Z,99.90
2018-07-23T05:21:36.756Z,99.90
2018-07-23T05:24:05.215Z,99.90
2018-07-23T05:26:33.530Z,99.90
2018-07-23T05:29:01.828Z,99.90
2018-07-23T05:31:30.099Z,99.90
2018-07-23T05:33:58.374Z,99.90
2018-07-23T05:36:26.677Z,99.90
2018-07-23T05:38:54.961Z,99.90
2018-07-23T05:41:23.212Z,99.90
2018-07-23T05:43:51.586Z,99.90
2018-07-23T05:46:19.886Z,99.90
2018-07-23T05:48:48.166Z,99.90
2018-07-23T05:51:16.473Z,99.90
2018-07-23T05:53:44.756Z,99.90
2018-07-23T05:56:13.042Z,99.90
2018-07-23T05:58:41.308Z,99.90
2018-07-23T06:03:37.625Z,99.90
2018-07-23T06:06:05.930Z,99.90
2018-07-23T06:08:34.220Z,99.90
2018-07-23T06:11:02.472Z,99.90
2018-07-23T06:13:30.794Z,99.90
2018-07-23T06:15:59.046Z,99.90
2018-07-23T06:18:27.326Z,99.90
2018-07-23T06:20:55.580Z,99.90
2018-07-23T06:23:23.861Z,99.90
2018-07-23T06:25:52.223Z,99.90
2018-07-23T06:28:20.456Z,99.90
2018-07-23T06:30:48.699Z,99.90
2018-07-23T06:33:16.968Z,99.90
2018-07-23T06:35:45.257Z,99.90
2018-07-23T06:38:13.590Z,99.90
2018-07-23T06:40:41.870Z,99.90
2018-07-23T06:43:10.189Z,99.90
2018-07-23T06:45:38.448Z,99.90
2018-07-23T06:48:06.754Z,99.90
2018-07-23T06:50:35.072Z,99.90
2018-07-23T06:53:03.396Z,99.90
2018-07-23T06:55:31.665Z,99.90
2018-07-23T06:57:59.918Z,99.90
2018-07-23T07:00:28.343Z,99.90
2018-07-23T07:02:56.652Z,99.90
2018-07-23T07:05:24.906Z,99.90
2018-07-23T07:07:53.174Z,99.90
2018-07-23T07:10:21.435Z,99.90
2018-07-23T07:12:49.710Z,99.90
2018-07-23T07:15:18.058Z,99.90
2018-07-23T07:20:15.270Z,99.90
2018-07-23T07:22:43.538Z,99.90
2018-07-23T07:25:12.026Z,99.90
2018-07-23T07:27:40.340Z,99.90
2018-07-23T07:30:09.180Z,99.90
2018-07-23T07:32:37.444Z,99.90
2018-07-23T07:35:05.738Z,99.90
2018-07-23T07:37:34.197Z,99.90
2018-07-23T07:42:30.562Z,99.90
2018-07-23T07:44:58.844Z,99.90
2018-07-23T07:47:27.110Z,99.90
2018-07-23T07:49:55.364Z,99.90
2018-07-23T07:52:23.642Z,99.90
2018-07-23T07:54:51.920Z,99.90
2018-07-23T07:57:20.178Z,99.90
2018-07-23T08:02:16.483Z,99.90
2018-07-23T08:04:44.750Z,99.90
2018-07-23T08:07:13.081Z,99.90
2018-07-23T08:09:41.335Z,99.90
2018-07-23T08:12:09.618Z,99.90
2018-07-23T08:14:37.990Z,99.90
2018-07-23T08:17:06.415Z,99.90
2018-07-23T08:19:34.687Z,99.90
2018-07-23T08:22:02.939Z,99.90
2018-07-23T08:24:31.198Z,99.90
2018-07-23T08:26:59.636Z,99.90
2018-07-23T08:29:27.892Z,99.90
2018-07-23T08:31:56.296Z,99.90
2018-07-23T08:34:24.461Z,99.90
2018-07-23T08:36:52.770Z,99.90
2018-07-23T08:39:21.075Z,99.90
2018-07-23T08:44:17.356Z,99.90
2018-07-23T08:46:45.622Z,99.90
2018-07-23T08:49:14.042Z,99.90
2018-07-23T08:51:42.332Z,99.90
2018-07-23T08:54:10.588Z,99.90
2018-07-23T08:56:38.874Z,99.90
2018-07-23T08:59:07.210Z,99.90
2018-07-23T09:01:35.702Z,99.90
2018-07-23T09:04:04.021Z,99.90
2018-07-23T09:06:32.328Z,99.90
2018-07-23T09:11:28.872Z,99.90
2018-07-23T09:13:57.180Z,99.90
2018-07-23T09:16:25.451Z,99.90
2018-07-23T09:18:53.744Z,99.90
2018-07-23T09:21:22.179Z,99.90
2018-07-23T09:26:18.584Z,99.90
2018-07-23T09:28:46.858Z,99.90
2018-07-23T09:31:15.110Z,99.90
2018-07-23T09:33:43.577Z,99.90
2018-07-23T09:36:11.959Z,99.90
2018-07-23T09:38:40.266Z,99.90
2018-07-23T09:41:08.510Z,99.90
2018-07-23T09:43:36.787Z,99.90
2018-07-23T09:46:05.516Z,99.90
2018-07-23T09:48:33.818Z,99.90
2018-07-23T09:51:02.157Z,99.90
2018-07-23T09:53:30.457Z,99.90
2018-07-23T09:55:58.840Z,99.90
2018-07-23T09:58:27.147Z,99.90
2018-07-23T10:01:02.597Z,99.90
2018-07-23T10:03:31.046Z,99.90
2018-07-23T10:05:59.156Z,99.70
2018-07-23T10:08:28.257Z,99.90
2018-07-23T10:10:56.580Z,99.90
2018-07-23T10:13:24.854Z,99.90
2018-07-23T10:15:53.193Z,99.90
2018-07-23T10:18:21.496Z,99.90
2018-07-23T10:20:49.777Z,99.90
2018-07-23T10:23:18.056Z,99.90
2018-07-23T10:25:46.409Z,99.90
2018-07-23T10:28:14.652Z,99.90
2018-07-23T10:30:42.938Z,99.90
2018-07-23T10:33:11.202Z,99.90
2018-07-23T10:35:39.666Z,99.40
2018-07-23T10:38:07.922Z,98.10
2018-07-23T10:40:36.190Z,98.40
2018-07-23T10:43:04.531Z,97.90
2018-07-23T10:45:32.812Z,97.60
2018-07-23T10:48:01.074Z,97.80
2018-07-23T10:50:29.380Z,97.60
2018-07-23T10:52:57.664Z,97.30
2018-07-23T10:55:25.922Z,97.60
2018-07-23T10:57:54.991Z,97.60
2018-07-23T11:00:23.274Z,97.50
2018-07-23T11:02:51.562Z,97.30
2018-07-23T11:05:19.817Z,97.50
2018-07-23T11:07:48.110Z,97.20
2018-07-23T11:10:16.390Z,96.40
2018-07-23T11:12:44.661Z,95.80
2018-07-23T11:15:12.993Z,95.50
2018-07-23T11:17:41.397Z,95.50
2018-07-23T11:20:11.225Z,95.90
2018-07-23T11:22:39.724Z,95.00
2018-07-23T11:25:38.978Z,94.20
2018-07-23T11:27:36.405Z,94.40
2018-07-23T11:30:05.169Z,94.00
2018-07-23T11:32:33.852Z,94.90
2018-07-23T11:35:02.215Z,95.40
2018-07-23T11:37:30.460Z,96.60
2018-07-23T11:42:26.912Z,96.70
2018-07-23T11:44:55.225Z,97.10
2018-07-23T11:47:23.498Z,96.80
2018-07-23T11:49:51.800Z,96.00
2018-07-23T11:52:20.060Z,95.70
2018-07-23T11:54:48.554Z,95.40
2018-07-23T11:57:16.978Z,95.60
2018-07-23T11:59:45.316Z,95.70
2018-07-23T12:02:13.646Z,95.30
2018-07-23T12:04:42.190Z,95.10
2018-07-23T12:07:10.310Z,94.90
2018-07-23T12:09:38.616Z,94.70
2018-07-23T12:12:07.356Z,93.50
2018-07-23T12:14:35.640Z,93.70
2018-07-23T12:17:03.932Z,93.20
2018-07-23T12:19:32.218Z,93.50
2018-07-23T12:22:00.583Z,94.40
2018-07-23T12:24:28.875Z,93.40
2018-07-23T12:26:57.134Z,93.40
2018-07-23T12:29:25.401Z,92.40
2018-07-23T12:31:53.707Z,92.20
2018-07-23T12:34:22.007Z,91.80
2018-07-23T12:36:50.258Z,91.80
2018-07-23T12:39:18.561Z,92.30
2018-07-23T12:41:46.871Z,92.10
2018-07-23T12:44:15.136Z,92.30
2018-07-23T12:46:43.571Z,92.40
2018-07-23T12:49:11.914Z,90.80
2018-07-23T12:51:40.188Z,90.30
2018-07-23T12:54:08.565Z,90.00
2018-07-23T12:56:36.918Z,90.80
2018-07-23T12:59:05.222Z,90.10
2018-07-23T13:01:33.502Z,90.30
2018-07-23T13:04:01.778Z,90.10
2018-07-23T13:06:30.085Z,90.60
2018-07-23T13:08:58.362Z,90.00
2018-07-23T13:11:26.674Z,89.60
2018-07-23T13:13:54.950Z,89.00
2018-07-23T13:16:23.494Z,89.70
2018-07-23T13:18:51.768Z,88.70
2018-07-23T13:21:20.070Z,87.80
2018-07-23T13:23:48.466Z,86.30
2018-07-23T13:26:16.752Z,87.30
2018-07-23T13:28:45.259Z,88.40
2018-07-23T13:31:13.790Z,86.60
2018-07-23T13:33:42.056Z,86.60
2018-07-23T13:36:10.324Z,85.60
2018-07-23T13:38:38.582Z,84.70
2018-07-23T13:41:07.363Z,84.50
2018-07-23T13:43:35.643Z,83.30
2018-07-23T13:46:03.990Z,82.40
2018-07-23T13:51:00.321Z,82.00
2018-07-23T13:55:56.638Z,81.70
2018-07-23T13:58:24.906Z,80.30
2018-07-23T14:00:53.475Z,78.70
2018-07-23T14:03:21.931Z,76.40
2018-07-23T14:05:50.242Z,75.90
2018-07-23T14:08:18.504Z,74.10
2018-07-23T14:10:46.774Z,74.30
2018-07-23T14:13:15.205Z,73.40
2018-07-23T14:15:43.526Z,73.20
2018-07-23T14:18:11.917Z,71.90
2018-07-23T14:20:40.193Z,72.60
2018-07-23T14:23:08.511Z,71.90
2018-07-23T14:25:36.868Z,70.20
2018-07-23T14:28:05.352Z,69.60
2018-07-23T14:30:33.705Z,69.80
2018-07-23T14:33:02.035Z,67.40
2018-07-23T14:35:30.349Z,67.30
2018-07-23T14:37:58.720Z,67.70
2018-07-23T14:40:27.119Z,66.70
2018-07-23T14:42:55.564Z,67.70
2018-07-23T14:45:23.962Z,66.30
2018-07-23T14:47:52.547Z,65.00
2018-07-23T14:50:21.125Z,65.30
2018-07-23T14:52:49.419Z,65.90
2018-07-23T14:55:17.743Z,67.30
2018-07-23T14:57:46.201Z,65.30
2018-07-23T15:00:14.789Z,65.10
2018-07-23T15:02:43.273Z,66.00
2018-07-23T15:05:11.691Z,66.90
2018-07-23T15:07:39.991Z,66.20
2018-07-23T15:10:08.573Z,65.80
2018-07-23T15:12:36.857Z,66.70
2018-07-23T15:15:05.279Z,67.10
2018-07-23T15:17:33.591Z,65.80
2018-07-23T15:20:01.896Z,65.20
2018-07-23T15:22:30.196Z,64.70
2018-07-23T15:24:58.627Z,64.40
2018-07-23T15:27:26.950Z,63.40
2018-07-23T15:29:55.194Z,62.90
2018-07-23T15:32:23.762Z,64.20
2018-07-23T15:34:52.209Z,64.10
2018-07-23T15:39:48.586Z,65.10
2018-07-23T15:42:16.988Z,64.30
2018-07-23T15:44:45.565Z,63.80
2018-07-23T15:47:13.553Z,64.80
2018-07-23T15:49:41.876Z,65.30
2018-07-23T15:52:10.276Z,65.20
2018-07-23T15:54:38.552Z,65.30
2018-07-23T15:57:06.849Z,65.00
2018-07-23T15:59:35.206Z,64.50
2018-07-23T16:02:03.500Z,69.50
2018-07-23T16:04:31.799Z,69.90
2018-07-23T16:07:00.100Z,70.80
2018-07-23T16:09:28.596Z,70.90
2018-07-23T16:11:56.921Z,70.10
2018-07-23T16:14:25.311Z,69.50
2018-07-23T16:16:53.574Z,69.10
2018-07-23T16:19:22.035Z,69.20
2018-07-23T16:21:50.332Z,71.10
2018-07-23T16:24:18.650Z,70.60
2018-07-23T16:26:46.947Z,70.00
2018-07-23T16:29:15.275Z,70.80
2018-07-23T16:31:43.588Z,72.00
2018-07-23T16:34:11.917Z,72.20
2018-07-23T16:36:40.233Z,73.30
2018-07-23T16:39:10.328Z,74.30
2018-07-23T16:41:38.712Z,73.70
2018-07-23T16:44:07.485Z,73.50
2018-07-23T16:46:36.132Z,73.10
2018-07-23T16:51:32.582Z,74.20
2018-07-23T16:54:01.141Z,75.80
2018-07-23T16:56:30.697Z,76.40
2018-07-23T16:58:59.362Z,76.90
2018-07-23T17:01:27.641Z,77.80
2018-07-23T17:03:55.909Z,79.70
2018-07-23T17:06:24.207Z,80.40
2018-07-23T17:08:52.539Z,80.30
2018-07-23T17:11:20.818Z,81.50
2018-07-23T17:13:49.123Z,83.00
2018-07-23T17:16:17.615Z,83.80
2018-07-23T17:18:46.003Z,84.50
2018-07-23T17:21:14.287Z,86.40
2018-07-23T17:23:42.736Z,87.10
2018-07-23T17:26:11.004Z,87.80
2018-07-23T17:28:39.310Z,88.20
2018-07-23T17:31:07.997Z,89.20
2018-07-23T17:33:36.252Z,90.40
2018-07-23T17:36:04.872Z,91.20
2018-07-23T17:38:33.173Z,91.70
2018-07-23T17:41:01.529Z,91.90
2018-07-23T17:43:29.781Z,92.10
2018-07-23T17:45:58.151Z,92.10
2018-07-23T17:48:26.547Z,92.10
2018-07-23T17:50:54.827Z,92.20
2018-07-23T17:53:23.166Z,92.30
2018-07-23T17:55:51.542Z,92.40
2018-07-23T17:58:19.803Z,92.70
2018-07-23T18:00:48.099Z,92.70
2018-07-23T18:03:16.543Z,93.10
2018-07-23T18:05:44.841Z,93.10
2018-07-23T18:08:13.124Z,92.70
2018-07-23T18:10:41.628Z,93.20
2018-07-23T18:13:09.991Z,92.90
2018-07-23T18:15:38.278Z,93.40
2018-07-23T18:18:06.590Z,93.70
2018-07-23T18:20:34.863Z,93.90
2018-07-23T18:23:03.183Z,93.90
2018-07-23T18:25:31.553Z,93.90
2018-07-23T18:27:59.879Z,94.00
2018-07-23T18:30:28.138Z,94.00
2018-07-23T18:32:56.499Z,94.20
2018-07-23T18:35:24.784Z,94.40
2018-07-23T18:37:53.112Z,95.10
2018-07-23T18:40:21.573Z,95.60
2018-07-23T18:42:50.181Z,95.70
2018-07-23T18:45:18.581Z,96.00
2018-07-23T18:47:46.971Z,96.10
2018-07-23T18:50:15.245Z,96.30
2018-07-23T18:52:43.540Z,96.30
2018-07-23T18:55:11.843Z,96.50
2018-07-23T18:57:40.116Z,96.60
2018-07-23T19:00:08.926Z,96.90
2018-07-23T19:02:37.265Z,96.70
2018-07-23T19:05:05.801Z,96.90
2018-07-23T19:07:34.280Z,96.60
2018-07-23T19:10:02.559Z,96.90
2018-07-23T19:12:30.952Z,96.80
2018-07-23T19:14:59.320Z,96.60
2018-07-23T19:17:27.829Z,96.70
2018-07-23T19:19:56.355Z,96.70
2018-07-23T19:22:24.619Z,96.50
2018-07-23T19:24:53.071Z,96.40
2018-07-23T19:27:21.454Z,96.40
2018-07-23T19:29:49.739Z,96.50
2018-07-23T19:32:18.406Z,96.60
2018-07-23T19:34:46.684Z,96.90
2018-07-23T19:37:14.951Z,96.80
2018-07-23T19:39:43.329Z,96.80
2018-07-23T19:42:11.611Z,96.60
2018-07-23T19:44:39.927Z,96.80
2018-07-23T19:47:08.305Z,96.70
2018-07-23T19:49:36.625Z,96.80
2018-07-23T19:52:05.067Z,96.60
2018-07-23T19:54:33.377Z,96.90
2018-07-23T19:57:01.777Z,96.80
2018-07-23T19:59:30.113Z,96.80
2018-07-23T20:01:58.426Z,97.10
2018-07-23T20:04:26.779Z,97.10
2018-07-23T20:06:55.068Z,97.20
2018-07-23T20:09:23.363Z,97.10
2018-07-23T20:11:51.777Z,97.10
2018-07-23T20:14:20.433Z,97.30
2018-07-23T20:16:48.923Z,97.30
2018-07-23T20:19:17.262Z,97.40
2018-07-23T20:21:45.631Z,97.30
2018-07-23T20:24:13.903Z,97.40
2018-07-23T20:26:42.297Z,97.20
2018-07-23T20:29:10.724Z,97.00
2018-07-23T20:31:39.414Z,97.00
2018-07-23T20:34:07.780Z,97.00
2018-07-23T20:36:36.206Z,96.90
2018-07-23T20:39:06.724Z,96.90
2018-07-23T20:41:35.437Z,96.90
2018-07-23T20:44:03.789Z,96.80
2018-07-23T20:46:32.500Z,96.80
2018-07-23T20:49:00.839Z,97.00
2018-07-23T20:51:29.296Z,97.20
2018-07-23T20:56:26.138Z,97.30
2018-07-23T20:58:54.624Z,97.50
2018-07-23T21:01:23.095Z,97.50
2018-07-23T21:03:51.416Z,97.70
2018-07-23T21:06:19.838Z,97.80
2018-07-23T21:08:48.318Z,98.10
2018-07-23T21:11:16.918Z,98.00
2018-07-23T21:13:45.681Z,98.20
2018-07-23T21:16:14.047Z,98.30
2018-07-23T21:18:42.660Z,98.50
2018-07-23T21:21:11.059Z,98.50
2018-07-23T21:23:39.838Z,98.70
2018-07-23T21:26:08.234Z,98.60
2018-07-23T21:28:36.936Z,98.80
2018-07-23T21:31:05.999Z,98.90
2018-07-23T21:33:34.591Z,98.90
2018-07-23T21:36:03.371Z,99.10
2018-07-23T21:38:31.769Z,99.20
2018-07-23T21:41:00.031Z,99.40
2018-07-23T21:43:28.393Z,99.50
2018-07-23T21:45:56.707Z,99.50
2018-07-23T21:48:25.109Z,99.60
2018-07-23T21:50:53.374Z,99.80
2018-07-23T21:53:21.664Z,99.90
2018-07-23T21:55:50.019Z,99.90
2018-07-23T21:58:18.457Z,99.90
2018-07-23T22:00:46.981Z,99.90
2018-07-23T22:03:15.435Z,99.90
2018-07-23T22:05:43.737Z,99.90
2018-07-23T22:08:12.246Z,99.90
2018-07-23T22:10:40.541Z,99.90
2018-07-23T22:13:08.845Z,99.90
2018-07-23T22:15:37.180Z,99.90
2018-07-23T22:20:33.819Z,99.70
2018-07-23T22:23:02.181Z,99.60
2018-07-23T22:25:31.596Z,99.90
2018-07-23T22:27:59.974Z,99.80
2018-07-23T22:30:28.359Z,99.90
2018-07-23T22:32:56.641Z,99.90
2018-07-23T22:35:25.019Z,99.90
2018-07-23T22:37:53.298Z,99.90
2018-07-23T22:40:21.599Z,99.90
2018-07-23T22:42:49.876Z,99.90
2018-07-23T22:45:18.351Z,99.90
2018-07-23T22:47:46.597Z,99.90
2018-07-23T22:50:14.905Z,99.90
2018-07-23T22:52:43.209Z,99.90
2018-07-23T22:55:11.552Z,99.90
2018-07-23T22:57:39.905Z,99.90
2018-07-23T23:00:08.431Z,99.90
2018-07-23T23:02:36.688Z,99.90
2018-07-23T23:05:05.160Z,99.90
2018-07-23T23:10:01.604Z,99.90
2018-07-23T23:12:30.007Z,99.90
2018-07-23T23:14:58.270Z,99.90
2018-07-23T23:17:26.564Z,99.90
2018-07-23T23:19:54.907Z,99.90
2018-07-23T23:22:23.212Z,99.90
2018-07-23T23:24:51.495Z,99.90
2018-07-23T23:27:19.846Z,99.90
2018-07-23T23:29:48.162Z,99.90
2018-07-23T23:32:16.528Z,99.90
2018-07-23T23:34:44.877Z,99.90
2018-07-23T23:37:13.568Z,99.90
2018-07-23T23:39:41.862Z,99.90
2018-07-23T23:42:10.276Z,99.90
2018-07-23T23:44:38.570Z,99.90
2018-07-23T23:47:06.823Z,99.90
2018-07-23T23:49:35.146Z,99.90
2018-07-23T23:54:31.878Z,99.90
2018-07-23T23:57:00.418Z,99.90
2018-07-23T23:59:28.687Z,99.90
